createdAt,value
2019-03-23T00:00:14.764Z,5.59
2019-03-23T00:02:40.602Z,5.56
2019-03-23T00:05:06.660Z,5.56
2019-03-23T00:07:32.492Z,5.56
2019-03-23T00:09:58.811Z,5.52
2019-03-23T00:12:24.671Z,5.52
2019-03-23T00:14:50.488Z,5.56
2019-03-23T00:17:16.321Z,5.61
2019-03-23T00:19:42.245Z,5.64
2019-03-23T00:22:08.087Z,5.37
2019-03-23T00:24:33.893Z,5.17
2019-03-23T00:26:59.721Z,4.93
2019-03-23T00:29:25.583Z,5.07
2019-03-23T00:31:51.391Z,5.02
2019-03-23T00:34:17.227Z,4.85
2019-03-23T00:36:43.069Z,4.55
2019-03-23T00:39:08.895Z,4.90
2019-03-23T00:41:34.722Z,4.85
2019-03-23T00:44:00.576Z,5.07
2019-03-23T00:46:26.424Z,5.10
2019-03-23T00:48:52.266Z,5.14
2019-03-23T00:51:18.103Z,5.12
2019-03-23T00:53:43.916Z,4.92
2019-03-23T00:56:09.766Z,4.69
2019-03-23T00:58:35.578Z,4.65
2019-03-23T01:01:01.430Z,4.88
2019-03-23T01:03:27.248Z,5.10
2019-03-23T01:05:53.097Z,4.81
2019-03-23T01:08:18.930Z,4.63
2019-03-23T01:10:44.754Z,4.51
2019-03-23T01:13:10.591Z,4.74
2019-03-23T01:15:36.403Z,4.54
2019-03-23T01:18:02.214Z,4.20
2019-03-23T01:20:28.105Z,4.05
2019-03-23T01:22:53.906Z,4.14
2019-03-23T01:25:20.913Z,4.31
2019-03-23T01:27:46.761Z,4.35
2019-03-23T01:30:13.288Z,4.46
2019-03-23T01:32:39.107Z,4.64
2019-03-23T01:35:05.829Z,4.83
2019-03-23T01:37:31.667Z,4.70
2019-03-23T01:39:57.492Z,4.48
2019-03-23T01:42:23.341Z,4.58
2019-03-23T01:44:49.418Z,4.56
2019-03-23T01:47:15.277Z,4.56
2019-03-23T01:49:41.101Z,4.62
2019-03-23T01:52:06.902Z,4.51
2019-03-23T01:54:32.748Z,4.40
2019-03-23T01:56:58.574Z,4.21
2019-03-23T01:59:24.425Z,4.28
2019-03-23T02:01:50.250Z,4.28
2019-03-23T02:04:16.091Z,4.35
2019-03-23T02:06:41.908Z,4.10
2019-03-23T02:09:07.774Z,4.07
2019-03-23T02:11:33.809Z,3.91
2019-03-23T02:13:59.642Z,3.69
2019-03-23T02:16:25.485Z,3.94
2019-03-23T02:18:51.324Z,3.98
2019-03-23T02:21:17.161Z,3.85
2019-03-23T02:23:42.974Z,3.85
2019-03-23T02:26:08.811Z,3.91
2019-03-23T02:28:34.640Z,3.82
2019-03-23T02:31:00.494Z,3.74
2019-03-23T02:33:26.324Z,3.52
2019-03-23T02:35:52.147Z,3.35
2019-03-23T02:38:17.995Z,3.40
2019-03-23T02:40:43.818Z,3.44
2019-03-23T02:43:09.665Z,3.57
2019-03-23T02:45:35.521Z,3.56
2019-03-23T02:48:01.346Z,3.56
2019-03-23T02:50:27.159Z,3.66
2019-03-23T02:52:53.005Z,3.68
2019-03-23T02:55:18.848Z,3.70
2019-03-23T02:57:44.680Z,3.71
2019-03-23T03:00:13.103Z,3.65
2019-03-23T03:02:38.951Z,3.66
2019-03-23T03:05:07.840Z,3.64
2019-03-23T03:07:41.742Z,3.57
2019-03-23T03:10:02.718Z,3.51
2019-03-23T03:12:28.557Z,3.70
2019-03-23T03:14:54.408Z,3.68
2019-03-23T03:17:20.223Z,3.11
2019-03-23T03:19:46.180Z,3.08
2019-03-23T03:22:11.987Z,3.03
2019-03-23T03:24:37.815Z,2.98
2019-03-23T03:27:03.656Z,3.05
2019-03-23T03:29:29.479Z,2.89
2019-03-23T03:31:55.335Z,3.04
2019-03-23T03:34:21.227Z,3.11
2019-03-23T03:36:47.050Z,2.77
2019-03-23T03:39:12.886Z,2.74
2019-03-23T03:41:38.722Z,2.74
2019-03-23T03:44:04.545Z,2.81
2019-03-23T03:46:30.479Z,2.87
2019-03-23T03:48:56.295Z,3.09
2019-03-23T03:51:22.102Z,3.01
2019-03-23T03:53:47.920Z,2.92
2019-03-23T03:56:13.761Z,2.89
2019-03-23T03:58:39.587Z,2.80
2019-03-23T04:01:05.440Z,2.83
2019-03-23T04:03:31.263Z,2.91
2019-03-23T04:05:57.101Z,2.96
2019-03-23T04:08:22.916Z,2.71
2019-03-23T04:10:49.029Z,2.43
2019-03-23T04:13:14.860Z,2.44
2019-03-23T04:15:40.671Z,2.69
2019-03-23T04:18:06.524Z,2.82
2019-03-23T04:20:32.393Z,2.80
2019-03-23T04:22:58.241Z,2.84
2019-03-23T04:25:24.077Z,2.65
2019-03-23T04:27:49.925Z,2.65
2019-03-23T04:30:15.844Z,2.79
2019-03-23T04:32:41.680Z,2.84
2019-03-23T04:35:07.805Z,2.79
2019-03-23T04:37:33.643Z,2.78
2019-03-23T04:39:59.489Z,2.74
2019-03-23T04:42:25.309Z,2.76
2019-03-23T04:44:51.151Z,2.69
2019-03-23T04:47:17.012Z,2.80
2019-03-23T04:49:42.883Z,2.62
2019-03-23T04:52:08.714Z,2.80
2019-03-23T04:54:34.557Z,2.87
2019-03-23T04:57:00.389Z,2.84
2019-03-23T04:59:26.256Z,2.70
2019-03-23T05:01:52.067Z,2.65
2019-03-23T05:04:17.898Z,2.59
2019-03-23T05:06:43.729Z,2.63
2019-03-23T05:09:09.552Z,2.67
2019-03-23T05:11:35.392Z,2.81
2019-03-23T05:14:01.209Z,2.63
2019-03-23T05:16:27.033Z,2.49
2019-03-23T05:18:52.882Z,2.56
2019-03-23T05:21:18.735Z,2.28
2019-03-23T05:23:45.868Z,2.07
2019-03-23T05:26:11.817Z,1.77
2019-03-23T05:28:37.643Z,1.67
2019-03-23T05:31:03.467Z,1.58
2019-03-23T05:33:29.289Z,1.43
2019-03-23T05:35:55.134Z,1.42
2019-03-23T05:38:20.963Z,1.70
2019-03-23T05:40:46.779Z,1.83
2019-03-23T05:43:12.625Z,2.09
2019-03-23T05:45:38.444Z,2.16
2019-03-23T05:48:04.302Z,2.10
2019-03-23T05:50:30.117Z,2.08
2019-03-23T05:52:55.964Z,1.99
2019-03-23T05:55:21.782Z,1.89
2019-03-23T05:57:47.605Z,1.78
2019-03-23T06:00:15.121Z,1.91
2019-03-23T06:02:40.958Z,2.14
2019-03-23T06:05:06.866Z,2.21
2019-03-23T06:07:32.681Z,2.37
2019-03-23T06:09:58.503Z,2.40
2019-03-23T06:12:24.319Z,2.50
2019-03-23T06:14:50.160Z,2.67
2019-03-23T06:17:15.996Z,2.71
2019-03-23T06:19:41.902Z,2.85
2019-03-23T06:22:07.714Z,2.72
2019-03-23T06:24:33.527Z,2.56
2019-03-23T06:26:59.366Z,2.71
2019-03-23T06:29:25.197Z,2.78
2019-03-23T06:31:51.034Z,3.02
2019-03-23T06:34:16.860Z,3.16
2019-03-23T06:36:42.695Z,3.31
2019-03-23T06:39:08.538Z,3.32
2019-03-23T06:41:34.377Z,3.31
2019-03-23T06:44:00.203Z,3.48
2019-03-23T06:46:26.036Z,3.73
2019-03-23T06:48:51.870Z,3.91
2019-03-23T06:51:17.696Z,4.04
2019-03-23T06:53:43.511Z,4.22
2019-03-23T06:56:09.366Z,4.32
2019-03-23T06:58:35.209Z,4.45
2019-03-23T07:01:01.037Z,4.66
2019-03-23T07:03:26.848Z,4.89
2019-03-23T07:05:52.653Z,5.11
2019-03-23T07:08:18.484Z,5.41
2019-03-23T07:10:44.293Z,5.54
2019-03-23T07:13:10.134Z,5.90
2019-03-23T07:15:35.941Z,6.04
2019-03-23T07:18:01.767Z,6.25
2019-03-23T07:20:27.593Z,6.58
2019-03-23T07:22:54.900Z,7.01
2019-03-23T07:25:20.865Z,7.37
2019-03-23T07:27:46.677Z,7.37
2019-03-23T07:30:13.898Z,7.78
2019-03-23T07:32:39.733Z,8.15
2019-03-23T07:35:05.714Z,8.23
2019-03-23T07:37:31.511Z,8.10
2019-03-23T07:39:57.358Z,8.51
2019-03-23T07:42:23.174Z,8.65
2019-03-23T07:44:49.018Z,8.68
2019-03-23T07:47:14.851Z,8.97
2019-03-23T07:49:40.683Z,9.07
2019-03-23T07:52:06.540Z,9.07
2019-03-23T07:54:32.457Z,9.02
2019-03-23T07:56:58.306Z,9.27
2019-03-23T07:59:24.156Z,9.27
2019-03-23T08:01:49.986Z,9.67
2019-03-23T08:04:15.827Z,10.00
2019-03-23T08:06:41.681Z,10.20
2019-03-23T08:09:07.511Z,10.39
2019-03-23T08:11:33.338Z,10.43
2019-03-23T08:13:59.182Z,10.63
2019-03-23T08:16:25.009Z,10.82
2019-03-23T08:18:50.869Z,10.91
2019-03-23T08:21:16.786Z,11.10
2019-03-23T08:23:42.634Z,11.11
2019-03-23T08:26:08.552Z,10.95
2019-03-23T08:28:34.426Z,10.89
2019-03-23T08:31:00.389Z,10.98
2019-03-23T08:33:26.231Z,11.41
2019-03-23T08:35:52.078Z,11.35
2019-03-23T08:38:17.909Z,11.35
2019-03-23T08:40:43.749Z,11.34
2019-03-23T08:43:09.578Z,11.27
2019-03-23T08:45:35.402Z,11.57
2019-03-23T08:48:01.278Z,11.82
2019-03-23T08:50:27.098Z,11.83
2019-03-23T08:52:52.966Z,11.86
2019-03-23T08:55:18.796Z,11.39
2019-03-23T08:57:44.618Z,11.50
2019-03-23T09:00:10.657Z,11.60
2019-03-23T09:02:36.499Z,11.74
2019-03-23T09:05:04.352Z,11.74
2019-03-23T09:07:30.189Z,11.94
2019-03-23T09:09:59.479Z,12.13
2019-03-23T09:12:23.748Z,12.42
2019-03-23T09:14:49.606Z,12.43
2019-03-23T09:17:15.413Z,12.61
2019-03-23T09:19:41.284Z,13.06
2019-03-23T09:22:07.162Z,13.43
2019-03-23T09:24:32.978Z,13.55
2019-03-23T09:26:58.809Z,13.55
2019-03-23T09:29:24.655Z,13.67
2019-03-23T09:31:50.473Z,13.86
2019-03-23T09:34:16.299Z,13.89
2019-03-23T09:36:42.109Z,13.97
2019-03-23T09:39:07.941Z,14.13
2019-03-23T09:41:33.857Z,14.16
2019-03-23T09:43:59.677Z,14.40
2019-03-23T09:46:25.494Z,14.40
2019-03-23T09:48:51.329Z,14.44
2019-03-23T09:51:17.145Z,14.43
2019-03-23T09:53:42.955Z,14.53
2019-03-23T09:56:08.796Z,14.60
2019-03-23T09:58:34.616Z,14.73
2019-03-23T10:01:00.471Z,14.81
2019-03-23T10:03:26.281Z,14.84
2019-03-23T10:05:52.095Z,14.97
2019-03-23T10:08:17.920Z,14.94
2019-03-23T10:10:43.730Z,14.99
2019-03-23T10:13:09.553Z,15.02
2019-03-23T10:15:35.360Z,15.14
2019-03-23T10:18:01.699Z,15.13
2019-03-23T10:20:27.597Z,15.40
2019-03-23T10:22:53.480Z,15.50
2019-03-23T10:25:19.250Z,15.47
2019-03-23T10:27:45.084Z,15.66
2019-03-23T10:30:11.081Z,15.81
2019-03-23T10:32:36.892Z,15.96
2019-03-23T10:35:05.023Z,16.02
2019-03-23T10:37:30.832Z,16.02
2019-03-23T10:39:56.649Z,15.98
2019-03-23T10:42:22.470Z,15.92
2019-03-23T10:44:48.309Z,15.93
2019-03-23T10:47:14.115Z,16.07
2019-03-23T10:49:39.967Z,16.15
2019-03-23T10:52:05.797Z,16.08
2019-03-23T10:54:31.622Z,16.17
2019-03-23T10:56:57.428Z,16.28
2019-03-23T10:59:23.289Z,16.30
2019-03-23T11:01:49.116Z,16.36
2019-03-23T11:04:14.921Z,16.74
2019-03-23T11:06:40.775Z,16.82
2019-03-23T11:09:06.679Z,16.58
2019-03-23T11:11:32.506Z,16.79
2019-03-23T11:13:58.320Z,16.93
2019-03-23T11:16:24.149Z,17.17
2019-03-23T11:18:49.955Z,17.17
2019-03-23T11:21:15.902Z,17.14
2019-03-23T11:23:41.721Z,17.26
2019-03-23T11:26:07.545Z,17.26
2019-03-23T11:28:33.365Z,17.25
2019-03-23T11:30:59.190Z,17.38
2019-03-23T11:33:25.007Z,17.55
2019-03-23T11:35:57.757Z,17.86
2019-03-23T11:38:18.551Z,17.96
2019-03-23T11:40:52.741Z,17.98
2019-03-23T11:43:12.120Z,18.19
2019-03-23T11:45:37.956Z,18.74
2019-03-23T11:48:03.785Z,19.08
2019-03-23T11:50:29.636Z,19.32
2019-03-23T11:52:55.445Z,19.26
2019-03-23T11:55:21.277Z,18.62
2019-03-23T11:57:47.105Z,19.06
2019-03-23T12:00:13.840Z,19.50
2019-03-23T12:02:39.659Z,19.38
2019-03-23T12:05:07.065Z,19.52
2019-03-23T12:07:32.892Z,19.32
2019-03-23T12:09:58.706Z,19.41
2019-03-23T12:12:24.532Z,19.41
2019-03-23T12:14:50.369Z,19.58
2019-03-23T12:17:16.203Z,19.69
2019-03-23T12:19:42.017Z,19.85
2019-03-23T12:22:07.873Z,19.96
2019-03-23T12:24:33.677Z,20.18
2019-03-23T12:26:59.503Z,20.64
2019-03-23T12:29:25.354Z,20.89
2019-03-23T12:31:51.168Z,20.57
2019-03-23T12:34:17.108Z,20.35
2019-03-23T12:36:43.327Z,20.65
2019-03-23T12:39:09.141Z,20.70
2019-03-23T12:41:34.958Z,20.84
2019-03-23T12:44:00.788Z,21.01
2019-03-23T12:46:26.621Z,20.69
2019-03-23T12:48:52.469Z,19.97
2019-03-23T12:51:18.284Z,20.48
2019-03-23T12:53:44.136Z,20.46
2019-03-23T12:56:09.971Z,20.64
2019-03-23T12:58:35.809Z,20.88
2019-03-23T13:01:01.670Z,21.08
2019-03-23T13:03:27.659Z,21.69
2019-03-23T13:05:53.477Z,21.23
2019-03-23T13:08:19.299Z,21.27
2019-03-23T13:10:45.128Z,21.23
2019-03-23T13:13:10.970Z,21.62
2019-03-23T13:15:36.805Z,21.87
2019-03-23T13:18:03.199Z,21.89
2019-03-23T13:20:29.259Z,21.55
2019-03-23T13:22:55.159Z,21.65
2019-03-23T13:25:20.965Z,21.38
2019-03-23T13:27:46.801Z,21.90
2019-03-23T13:30:15.041Z,21.86
2019-03-23T13:32:40.853Z,21.83
2019-03-23T13:35:06.894Z,22.13
2019-03-23T13:37:32.728Z,22.69
2019-03-23T13:39:58.576Z,22.18
2019-03-23T13:42:24.414Z,21.87
2019-03-23T13:44:50.235Z,22.17
2019-03-23T13:47:16.086Z,22.50
2019-03-23T13:49:41.933Z,22.41
2019-03-23T13:52:07.890Z,22.64
2019-03-23T13:54:33.700Z,22.68
2019-03-23T13:56:59.785Z,22.57
2019-03-23T13:59:25.717Z,22.37
2019-03-23T14:01:51.934Z,22.06
2019-03-23T14:04:17.792Z,22.10
2019-03-23T14:06:43.789Z,21.86
2019-03-23T14:09:09.860Z,22.29
2019-03-23T14:11:35.921Z,22.03
2019-03-23T14:14:02.029Z,22.48
2019-03-23T14:16:27.856Z,22.54
2019-03-23T14:18:53.736Z,22.79
2019-03-23T14:21:19.511Z,23.09
2019-03-23T14:23:45.585Z,22.88
2019-03-23T14:26:11.406Z,22.61
2019-03-23T14:28:37.214Z,22.84
2019-03-23T14:31:03.044Z,22.13
2019-03-23T14:33:28.863Z,22.42
2019-03-23T14:35:54.675Z,22.53
2019-03-23T14:38:20.519Z,22.59
2019-03-23T14:40:46.330Z,22.92
2019-03-23T14:43:12.146Z,23.54
2019-03-23T14:45:37.994Z,23.61
2019-03-23T14:48:03.835Z,22.48
2019-03-23T14:50:29.698Z,22.84
2019-03-23T14:52:55.538Z,21.92
2019-03-23T14:55:21.652Z,21.86
2019-03-23T14:57:47.509Z,22.80
2019-03-23T15:00:17.123Z,23.20
2019-03-23T15:02:42.946Z,23.32
2019-03-23T15:05:08.809Z,22.65
2019-03-23T15:07:34.726Z,21.98
2019-03-23T15:10:00.539Z,22.60
2019-03-23T15:12:26.378Z,21.19
2019-03-23T15:14:52.196Z,20.92
2019-03-23T15:17:18.012Z,20.14
2019-03-23T15:19:43.940Z,20.90
2019-03-23T15:22:09.832Z,21.34
2019-03-23T15:24:35.669Z,20.40
2019-03-23T15:27:01.487Z,20.34
2019-03-23T15:29:27.304Z,21.17
2019-03-23T15:31:53.145Z,20.50
2019-03-23T15:34:18.971Z,20.38
2019-03-23T15:36:44.796Z,20.17
2019-03-23T15:39:10.624Z,20.42
2019-03-23T15:41:36.463Z,19.99
2019-03-23T15:44:02.296Z,19.92
2019-03-23T15:46:28.142Z,19.84
2019-03-23T15:48:53.971Z,19.73
2019-03-23T15:51:19.839Z,19.44
2019-03-23T15:53:45.654Z,18.94
2019-03-23T15:56:11.463Z,18.63
2019-03-23T15:58:37.314Z,18.24
2019-03-23T16:01:03.146Z,18.15
2019-03-23T16:03:28.988Z,17.94
2019-03-23T16:05:54.816Z,17.92
2019-03-23T16:08:20.643Z,17.77
2019-03-23T16:10:46.475Z,17.61
2019-03-23T16:13:12.301Z,17.51
2019-03-23T16:15:38.183Z,17.45
2019-03-23T16:18:04.003Z,17.40
2019-03-23T16:20:29.828Z,17.40
2019-03-23T16:22:55.679Z,17.41
2019-03-23T16:25:21.521Z,17.24
2019-03-23T16:27:47.369Z,17.10
2019-03-23T16:30:17.043Z,17.01
2019-03-23T16:32:42.883Z,17.05
2019-03-23T16:35:09.538Z,16.99
2019-03-23T16:37:35.382Z,16.92
2019-03-23T16:40:02.735Z,16.86
2019-03-23T16:42:28.568Z,16.79
2019-03-23T16:44:54.395Z,16.70
2019-03-23T16:47:20.253Z,16.60
2019-03-23T16:49:46.344Z,16.60
2019-03-23T16:52:12.181Z,16.55
2019-03-23T16:54:38.003Z,16.49
2019-03-23T16:57:03.828Z,16.35
2019-03-23T16:59:29.655Z,16.40
2019-03-23T17:01:55.519Z,16.33
2019-03-23T17:04:21.465Z,16.30
2019-03-23T17:06:47.545Z,16.13
2019-03-23T17:09:13.427Z,16.06
2019-03-23T17:11:39.303Z,16.07
2019-03-23T17:14:05.218Z,15.97
2019-03-23T17:16:31.194Z,15.90
2019-03-23T17:18:57.026Z,15.83
2019-03-23T17:21:25.189Z,15.72
2019-03-23T17:23:51.056Z,15.63
2019-03-23T17:26:17.333Z,15.59
2019-03-23T17:28:43.787Z,15.54
2019-03-23T17:31:09.715Z,15.39
2019-03-23T17:33:35.595Z,15.34
2019-03-23T17:36:01.450Z,15.22
2019-03-23T17:38:27.427Z,15.17
2019-03-23T17:40:53.321Z,15.18
2019-03-23T17:43:19.182Z,14.98
2019-03-23T17:45:45.134Z,14.66
2019-03-23T17:48:10.963Z,14.50
2019-03-23T17:50:36.825Z,14.32
2019-03-23T17:53:02.621Z,14.23
2019-03-23T17:55:28.492Z,14.12
2019-03-23T17:57:54.347Z,13.72
2019-03-23T18:00:20.440Z,13.92
2019-03-23T18:02:46.280Z,13.89
2019-03-23T18:05:14.221Z,13.97
2019-03-23T18:07:40.257Z,13.97
2019-03-23T18:10:06.976Z,13.81
2019-03-23T18:12:32.816Z,13.72
2019-03-23T18:14:58.635Z,13.64
2019-03-23T18:17:24.490Z,13.53
2019-03-23T18:19:50.310Z,13.32
2019-03-23T18:22:16.158Z,13.16
2019-03-23T18:24:41.990Z,13.10
2019-03-23T18:27:07.964Z,13.02
2019-03-23T18:29:33.821Z,13.02
2019-03-23T18:31:59.768Z,12.88
2019-03-23T18:34:25.611Z,12.72
2019-03-23T18:36:52.062Z,12.74
2019-03-23T18:39:17.917Z,12.66
2019-03-23T18:41:43.912Z,12.36
2019-03-23T18:44:16.090Z,12.28
2019-03-23T18:46:37.960Z,12.17
2019-03-23T18:49:03.888Z,11.66
2019-03-23T18:51:29.862Z,11.91
2019-03-23T18:53:55.920Z,11.55
2019-03-23T18:56:21.774Z,11.60
2019-03-23T18:58:47.717Z,11.29
2019-03-23T19:01:13.654Z,11.33
2019-03-23T19:03:40.497Z,11.38
2019-03-23T19:06:06.692Z,11.38
2019-03-23T19:08:32.599Z,11.40
2019-03-23T19:10:58.465Z,11.27
2019-03-23T19:13:24.466Z,11.06
2019-03-23T19:15:50.304Z,10.90
2019-03-23T19:18:16.181Z,11.06
2019-03-23T19:20:42.044Z,9.94
2019-03-23T19:23:07.891Z,9.99
2019-03-23T19:25:33.743Z,10.07
2019-03-23T19:27:59.650Z,10.05
2019-03-23T19:30:25.720Z,9.73
2019-03-23T19:32:51.652Z,9.52
2019-03-23T19:35:17.492Z,9.80
2019-03-23T19:37:43.382Z,9.80
2019-03-23T19:40:09.405Z,9.68
2019-03-23T19:42:35.255Z,9.77
2019-03-23T19:45:01.233Z,9.75
2019-03-23T19:47:27.140Z,9.75
2019-03-23T19:49:53.069Z,10.00
2019-03-23T19:52:18.949Z,9.80
2019-03-23T19:54:44.828Z,9.78
2019-03-23T19:57:10.793Z,9.60
2019-03-23T19:59:36.639Z,9.42
2019-03-23T20:02:02.594Z,9.55
2019-03-23T20:04:28.435Z,9.69
2019-03-23T20:06:54.378Z,9.69
2019-03-23T20:09:20.233Z,9.66
2019-03-23T20:11:46.124Z,9.62
2019-03-23T20:14:12.032Z,9.41
2019-03-23T20:16:37.886Z,9.72
2019-03-23T20:19:03.837Z,9.73
2019-03-23T20:21:29.715Z,9.83
2019-03-23T20:23:55.562Z,9.76
2019-03-23T20:26:21.416Z,9.82
2019-03-23T20:28:47.325Z,9.73
2019-03-23T20:31:13.212Z,9.90
2019-03-23T20:33:39.055Z,9.86
2019-03-23T20:36:04.978Z,9.90
2019-03-23T20:38:30.825Z,9.89
2019-03-23T20:40:56.708Z,9.94
2019-03-23T20:43:22.590Z,9.93
2019-03-23T20:45:48.472Z,9.91
2019-03-23T20:48:14.435Z,9.97
2019-03-23T20:50:40.739Z,10.13
2019-03-23T20:53:06.662Z,10.08
2019-03-23T20:55:32.644Z,10.02
2019-03-23T20:57:58.467Z,10.06
2019-03-23T21:00:24.309Z,10.02
2019-03-23T21:02:50.408Z,9.93
2019-03-23T21:05:16.383Z,9.81
2019-03-23T21:07:42.265Z,9.81
2019-03-23T21:10:08.349Z,9.85
2019-03-23T21:12:34.215Z,9.66
2019-03-23T21:15:00.040Z,9.66
2019-03-23T21:17:25.880Z,9.68
2019-03-23T21:19:51.794Z,9.65
2019-03-23T21:22:20.648Z,9.62
2019-03-23T21:24:47.215Z,9.52
2019-03-23T21:27:24.867Z,9.49
2019-03-23T21:29:50.806Z,9.40
2019-03-23T21:32:16.728Z,9.40
2019-03-23T21:34:42.515Z,9.33
2019-03-23T21:37:09.235Z,9.17
2019-03-23T21:39:35.314Z,9.17
2019-03-23T21:42:01.174Z,9.18
2019-03-23T21:44:31.314Z,9.13
2019-03-23T21:46:54.868Z,9.00
2019-03-23T21:49:20.724Z,9.00
2019-03-23T21:51:46.649Z,8.95
2019-03-23T21:54:12.448Z,8.87
2019-03-23T21:56:38.288Z,8.89
2019-03-23T21:59:04.226Z,8.83
2019-03-23T22:01:30.053Z,8.78
2019-03-23T22:03:55.899Z,8.70
2019-03-23T22:06:21.730Z,8.74
2019-03-23T22:08:47.562Z,8.64
2019-03-23T22:11:13.676Z,8.67
2019-03-23T22:13:39.571Z,8.61
2019-03-23T22:16:05.659Z,8.61
2019-03-23T22:18:31.478Z,8.48
2019-03-23T22:20:57.347Z,8.36
2019-03-23T22:23:23.196Z,8.34
2019-03-23T22:25:49.063Z,8.29
2019-03-23T22:28:14.873Z,8.23
2019-03-23T22:30:40.719Z,8.16
2019-03-23T22:33:06.555Z,8.13
2019-03-23T22:35:32.402Z,8.14
2019-03-23T22:37:58.225Z,8.04
2019-03-23T22:40:24.066Z,8.03
2019-03-23T22:42:49.913Z,7.99
2019-03-23T22:45:15.754Z,8.03
2019-03-23T22:47:41.722Z,7.98
2019-03-23T22:50:08.144Z,7.87
2019-03-23T22:52:34.030Z,7.77
2019-03-23T22:54:59.919Z,7.77
2019-03-23T22:57:25.775Z,7.79
2019-03-23T22:59:51.641Z,7.84
2019-03-23T23:02:17.484Z,7.78
2019-03-23T23:04:43.311Z,7.74
2019-03-23T23:07:09.201Z,7.66
2019-03-23T23:09:35.014Z,7.59
2019-03-23T23:12:00.991Z,7.64
2019-03-23T23:14:26.818Z,7.62
2019-03-23T23:16:52.687Z,7.53
2019-03-23T23:19:18.590Z,7.60
2019-03-23T23:21:44.497Z,7.64
2019-03-23T23:24:10.340Z,7.74
2019-03-23T23:26:36.151Z,7.60
2019-03-23T23:29:02.109Z,7.51
2019-03-23T23:31:27.936Z,7.48
2019-03-23T23:33:53.799Z,7.45
2019-03-23T23:36:19.613Z,7.45
2019-03-23T23:38:45.428Z,7.27
2019-03-23T23:41:11.370Z,7.23
2019-03-23T23:43:37.181Z,7.20
2019-03-23T23:46:03.107Z,7.12
2019-03-23T23:48:28.954Z,7.01
2019-03-23T23:50:54.803Z,7.04
2019-03-23T23:53:20.644Z,7.18
2019-03-23T23:55:46.475Z,7.16
2019-03-23T23:58:12.328Z,7.24
